createdAt,value
2023-01-04T00:02:01.855Z,2.85
2023-01-04T00:04:29.157Z,3.90
2023-01-04T00:06:57.013Z,2.97
2023-01-04T00:09:24.313Z,3.58
2023-01-04T00:11:51.464Z,2.63
2023-01-04T00:14:19.210Z,3.75
2023-01-04T00:16:46.543Z,4.55
2023-01-04T00:19:13.879Z,4.57
2023-01-04T00:21:41.194Z,2.33
2023-01-04T00:24:09.426Z,3.05
2023-01-04T00:26:36.699Z,5.50
2023-01-04T00:29:08.003Z,5.43
2023-01-04T00:31:35.816Z,4.00
2023-01-04T00:34:06.990Z,3.70
2023-01-04T00:36:35.157Z,4.10
2023-01-04T00:39:10.432Z,3.88
2023-01-04T00:41:58.124Z,3.55
2023-01-04T00:44:25.887Z,5.97
2023-01-04T00:46:53.257Z,2.92
2023-01-04T00:49:20.537Z,4.80
2023-01-04T00:51:47.859Z,3.10
2023-01-04T00:54:15.943Z,3.53
2023-01-04T00:56:43.273Z,3.50
2023-01-04T00:59:11.107Z,3.08
2023-01-04T01:01:38.407Z,2.47
2023-01-04T01:04:05.848Z,10.45
2023-01-04T01:06:33.961Z,2.90
2023-01-04T01:09:01.573Z,3.20
2023-01-04T01:11:29.470Z,4.25
2023-01-04T01:13:57.364Z,4.15
2023-01-04T01:16:51.887Z,4.45
2023-01-04T01:19:12.422Z,1.67
2023-01-04T01:21:39.724Z,2.65
2023-01-04T01:24:07.383Z,3.10
2023-01-04T01:26:34.751Z,2.42
2023-01-04T01:29:02.058Z,2.53
2023-01-04T01:31:29.716Z,3.08
2023-01-04T01:33:57.577Z,2.97
2023-01-04T01:36:25.624Z,1.83
2023-01-04T01:38:53.394Z,2.35
2023-01-04T01:41:23.651Z,3.78
2023-01-04T01:44:04.847Z,3.30
2023-01-04T01:46:41.145Z,1.98
2023-01-04T01:49:17.690Z,2.55
2023-01-04T01:51:45.083Z,2.35
2023-01-04T01:54:14.848Z,3.30
2023-01-04T01:56:43.536Z,2.50
2023-01-04T01:59:11.870Z,1.10
2023-01-04T02:01:39.255Z,2.65
2023-01-04T02:04:06.725Z,3.13
2023-01-04T02:06:35.309Z,1.77
2023-01-04T02:09:03.323Z,1.90
2023-01-04T02:11:30.587Z,2.08
2023-01-04T02:14:19.303Z,3.03
2023-01-04T02:16:49.633Z,1.48
2023-01-04T02:19:19.895Z,1.17
2023-01-04T02:22:03.490Z,1.80
2023-01-04T02:24:42.489Z,2.00
2023-01-04T02:27:28.602Z,1.15
2023-01-04T02:30:01.664Z,1.23
2023-01-04T02:32:28.936Z,2.08
2023-01-04T02:35:02.297Z,1.00
2023-01-04T02:37:37.388Z,2.60
2023-01-04T02:40:08.747Z,1.17
2023-01-04T02:42:57.162Z,1.58
2023-01-04T02:45:27.941Z,0.90
2023-01-04T02:48:13.739Z,2.13
2023-01-04T02:50:50.851Z,1.42
2023-01-04T02:53:29.644Z,2.00
2023-01-04T02:56:06.649Z,1.52
2023-01-04T02:58:52.284Z,0.90
2023-01-04T03:01:57.196Z,1.90
2023-01-04T03:04:54.976Z,1.23
2023-01-04T03:07:38.243Z,1.17
2023-01-04T03:10:11.424Z,1.58
2023-01-04T03:12:42.276Z,1.88
2023-01-04T03:15:16.842Z,1.35
2023-01-04T03:17:47.727Z,3.50
2023-01-04T03:20:17.357Z,1.38
2023-01-04T03:23:06.721Z,1.10
2023-01-04T03:26:04.168Z,2.63
2023-01-04T03:28:52.053Z,1.60
2023-01-04T03:31:51.749Z,2.38
2023-01-04T03:34:37.658Z,1.63
2023-01-04T03:37:07.649Z,0.98
2023-01-04T03:40:12.429Z,1.42
2023-01-04T03:43:17.282Z,1.00
2023-01-04T03:46:07.467Z,2.35
2023-01-04T03:48:45.126Z,1.38
2023-01-04T03:51:16.796Z,2.00
2023-01-04T03:53:52.971Z,1.40
2023-01-04T03:56:22.546Z,2.50
2023-01-04T03:58:50.570Z,1.02
2023-01-04T04:01:21.657Z,2.40
2023-01-04T04:04:07.828Z,1.35
2023-01-04T04:06:53.887Z,2.03
2023-01-04T04:09:21.292Z,1.20
2023-01-04T04:11:48.523Z,1.33
2023-01-04T04:14:15.899Z,1.77
2023-01-04T04:16:43.383Z,1.00
2023-01-04T04:19:10.638Z,1.88
2023-01-04T04:21:37.941Z,2.55
2023-01-04T04:24:05.611Z,0.90
2023-01-04T04:26:33.151Z,2.22
2023-01-04T04:29:00.411Z,1.27
2023-01-04T04:31:27.774Z,1.08
2023-01-04T04:33:55.075Z,1.38
2023-01-04T04:36:22.377Z,0.90
2023-01-04T04:38:49.677Z,1.63
2023-01-04T04:41:35.618Z,0.93
2023-01-04T04:44:03.038Z,2.72
2023-01-04T04:46:30.345Z,1.35
2023-01-04T04:48:58.242Z,1.83
2023-01-04T04:51:25.559Z,2.17
2023-01-04T04:53:52.821Z,1.00
2023-01-04T04:56:20.068Z,1.35
2023-01-04T04:58:47.360Z,0.95
2023-01-04T05:01:14.777Z,0.80
2023-01-04T05:03:42.120Z,1.30
2023-01-04T05:06:09.367Z,0.90
2023-01-04T05:08:36.748Z,0.90
2023-01-04T05:11:10.706Z,1.85
2023-01-04T05:13:37.928Z,0.90
2023-01-04T05:16:06.156Z,0.85
2023-01-04T05:18:33.355Z,2.00
2023-01-04T05:21:00.917Z,0.90
2023-01-04T05:23:28.110Z,0.90
2023-01-04T05:26:01.053Z,1.05
2023-01-04T05:28:28.551Z,1.25
2023-01-04T05:30:56.426Z,0.80
2023-01-04T05:33:25.094Z,0.80
2023-01-04T05:35:53.368Z,0.82
2023-01-04T05:38:20.867Z,0.80
2023-01-04T05:40:48.495Z,0.82
2023-01-04T05:43:16.471Z,2.17
2023-01-04T05:45:44.253Z,1.35
2023-01-04T05:48:11.544Z,1.27
2023-01-04T05:50:38.795Z,1.00
2023-01-04T05:53:08.423Z,0.95
2023-01-04T05:55:35.587Z,1.45
2023-01-04T05:58:02.897Z,0.80
2023-01-04T06:00:30.327Z,1.42
2023-01-04T06:02:57.650Z,1.13
2023-01-04T06:05:25.794Z,0.82
2023-01-04T06:07:53.445Z,1.63
2023-01-04T06:10:21.002Z,0.82
2023-01-04T06:12:48.344Z,1.00
2023-01-04T06:15:15.719Z,1.02
2023-01-04T06:17:43.023Z,1.73
2023-01-04T06:20:10.941Z,1.55
2023-01-04T06:22:38.435Z,0.93
2023-01-04T06:25:05.785Z,0.90
2023-01-04T06:27:33.048Z,1.73
2023-01-04T06:30:00.346Z,1.13
2023-01-04T06:32:27.592Z,0.70
2023-01-04T06:34:54.973Z,1.85
2023-01-04T06:37:22.353Z,2.10
2023-01-04T06:39:49.573Z,1.27
2023-01-04T06:42:35.719Z,1.42
2023-01-04T06:45:03.081Z,0.82
2023-01-04T06:47:30.356Z,2.20
2023-01-04T06:49:57.780Z,1.42
2023-01-04T06:52:25.046Z,1.13
2023-01-04T06:54:52.276Z,1.08
2023-01-04T06:57:19.482Z,1.38
2023-01-04T06:59:46.651Z,1.63
2023-01-04T07:02:17.028Z,0.80
2023-01-04T07:04:44.593Z,1.45
2023-01-04T07:07:12.120Z,0.82
2023-01-04T07:09:39.482Z,1.58
2023-01-04T07:12:07.241Z,0.93
2023-01-04T07:14:34.413Z,0.75
2023-01-04T07:17:01.663Z,1.63
2023-01-04T07:19:29.003Z,1.33
2023-01-04T07:21:58.615Z,2.75
2023-01-04T07:24:30.428Z,1.63
2023-01-04T07:27:00.298Z,1.35
2023-01-04T07:29:27.554Z,1.55
2023-01-04T07:31:55.112Z,2.80
2023-01-04T07:34:23.800Z,1.38
2023-01-04T07:36:51.265Z,4.05
2023-01-04T07:39:19.065Z,1.92
2023-01-04T07:41:46.773Z,1.25
2023-01-04T07:44:18.304Z,1.08
2023-01-04T07:46:45.798Z,2.22
2023-01-04T07:49:17.566Z,3.28
2023-01-04T07:51:45.822Z,2.85
2023-01-04T07:54:13.113Z,1.25
2023-01-04T07:56:40.514Z,3.00
2023-01-04T07:59:08.809Z,3.60
2023-01-04T08:01:37.971Z,1.80
2023-01-04T08:04:09.164Z,1.73
2023-01-04T08:06:37.121Z,2.90
2023-01-04T08:09:04.525Z,1.50
2023-01-04T08:11:32.006Z,1.40
2023-01-04T08:13:59.187Z,1.23
2023-01-04T08:16:34.343Z,1.65
2023-01-04T08:19:06.416Z,3.42
2023-01-04T08:21:34.998Z,2.70
2023-01-04T08:24:02.416Z,3.78
2023-01-04T08:26:29.665Z,2.00
2023-01-04T08:28:56.934Z,2.50
2023-01-04T08:31:25.699Z,2.08
2023-01-04T08:33:53.276Z,1.33
2023-01-04T08:36:28.117Z,2.17
2023-01-04T08:39:00.025Z,1.30
2023-01-04T08:44:16.142Z,2.92
2023-01-04T08:46:43.469Z,0.95
2023-01-04T08:49:10.803Z,1.33
2023-01-04T08:51:38.093Z,2.78
2023-01-04T08:54:05.582Z,1.13
2023-01-04T08:56:32.880Z,0.88
2023-01-04T08:59:00.285Z,1.85
2023-01-04T09:01:27.689Z,2.03
2023-01-04T09:03:56.862Z,1.33
2023-01-04T09:06:24.391Z,2.53
2023-01-04T09:08:52.654Z,2.50
2023-01-04T09:11:21.464Z,0.90
2023-01-04T09:13:49.051Z,1.00
2023-01-04T09:16:17.547Z,1.40
2023-01-04T09:18:45.054Z,1.67
2023-01-04T09:21:13.999Z,2.03
2023-01-04T09:23:41.704Z,2.00
2023-01-04T09:26:09.975Z,1.52
2023-01-04T09:28:37.514Z,1.65
2023-01-04T09:31:15.988Z,0.95
2023-01-04T09:34:12.808Z,2.28
2023-01-04T09:36:31.125Z,1.98
2023-01-04T09:38:58.313Z,2.42
2023-01-04T09:41:51.989Z,5.35
2023-01-04T09:44:46.641Z,4.10
2023-01-04T09:47:24.949Z,4.47
2023-01-04T09:50:00.225Z,1.92
2023-01-04T09:52:43.847Z,4.25
2023-01-04T09:55:37.742Z,1.15
2023-01-04T09:58:27.704Z,0.80
2023-01-04T10:01:00.074Z,1.10
2023-01-04T10:03:33.616Z,1.08
2023-01-04T10:06:01.478Z,1.27
2023-01-04T10:08:31.377Z,3.42
2023-01-04T10:11:10.779Z,2.53
2023-01-04T10:13:44.015Z,2.08
2023-01-04T10:16:30.355Z,2.00
2023-01-04T10:20:59.572Z,1.23
2023-01-04T10:22:20.909Z,1.77
2023-01-04T10:25:03.503Z,2.20
2023-01-04T10:27:53.641Z,2.50
2023-01-04T10:30:26.722Z,2.40
2023-01-04T10:33:00.110Z,2.55
2023-01-04T10:35:27.836Z,1.58
2023-01-04T10:37:58.690Z,2.63
2023-01-04T10:40:27.174Z,3.05
2023-01-04T10:43:03.135Z,1.08
2023-01-04T10:45:56.514Z,0.82
2023-01-04T10:48:30.300Z,3.58
2023-01-04T10:51:09.692Z,2.42
2023-01-04T10:53:48.743Z,1.90
2023-01-04T10:56:34.859Z,3.05
2023-01-04T10:59:16.201Z,2.10
2023-01-04T11:01:49.828Z,2.65
2023-01-04T11:04:24.179Z,1.15
2023-01-04T11:07:00.649Z,1.95
2023-01-04T11:09:30.911Z,3.70
2023-01-04T11:11:58.335Z,1.33
2023-01-04T11:14:26.995Z,11.45
2023-01-04T11:16:59.512Z,2.15
2023-01-04T11:19:27.981Z,2.17
2023-01-04T11:22:05.845Z,1.27
2023-01-04T11:24:34.033Z,1.27
2023-01-04T11:27:12.049Z,1.27
2023-01-04T11:29:45.303Z,5.25
2023-01-04T11:32:21.578Z,3.22
2023-01-04T11:34:53.268Z,2.58
2023-01-04T11:37:24.796Z,2.50
2023-01-04T11:39:51.999Z,1.55
2023-01-04T11:42:22.425Z,2.80
2023-01-04T11:45:01.910Z,3.35
2023-01-04T11:47:32.967Z,0.93
2023-01-04T11:52:27.611Z,1.58
2023-01-04T11:54:55.017Z,1.42
2023-01-04T11:57:22.225Z,1.80
2023-01-04T12:00:08.672Z,2.55
2023-01-04T12:03:00.216Z,3.60
2023-01-04T12:05:29.559Z,1.05
2023-01-04T12:07:58.215Z,2.67
2023-01-04T12:10:27.117Z,2.13
2023-01-04T12:12:55.411Z,2.05
2023-01-04T12:15:28.380Z,2.30
2023-01-04T12:17:55.647Z,3.20
2023-01-04T12:20:25.447Z,3.38
2023-01-04T12:22:52.684Z,3.08
2023-01-04T12:25:28.221Z,2.38
2023-01-04T12:27:55.842Z,2.75
2023-01-04T12:30:36.596Z,4.38
2023-01-04T12:33:36.566Z,2.58
2023-01-04T12:36:08.229Z,2.22
2023-01-04T12:38:54.372Z,5.50
2023-01-04T12:41:22.359Z,3.80
2023-01-04T12:43:50.288Z,2.42
2023-01-04T12:46:53.164Z,2.05
2023-01-04T12:49:29.902Z,3.90
2023-01-04T12:54:58.651Z,2.58
2023-01-04T12:57:29.525Z,2.75
2023-01-04T13:00:03.533Z,4.65
2023-01-04T13:02:31.081Z,2.15
2023-01-04T13:05:53.548Z,2.92
2023-01-04T13:10:35.753Z,1.75
2023-01-04T13:13:21.499Z,2.92
2023-01-04T13:16:03.725Z,3.22
2023-01-04T13:18:43.220Z,3.55
2023-01-04T13:21:12.456Z,2.58
2023-01-04T13:23:40.515Z,5.20
2023-01-04T13:26:26.527Z,5.13
2023-01-04T13:29:06.158Z,2.70
2023-01-04T13:31:34.031Z,3.65
2023-01-04T13:34:01.250Z,3.38
2023-01-04T13:36:28.517Z,2.30
2023-01-04T13:38:55.691Z,2.58
2023-01-04T13:41:23.755Z,3.88
2023-01-04T13:43:54.215Z,4.30
2023-01-04T13:46:26.928Z,3.67
2023-01-04T13:48:55.100Z,3.03
2023-01-04T13:51:30.684Z,4.18
2023-01-04T13:54:06.548Z,4.47
2023-01-04T13:56:35.408Z,3.55
2023-01-04T13:59:03.823Z,2.83
2023-01-04T14:01:33.296Z,3.17
2023-01-04T14:04:04.808Z,3.20
2023-01-04T14:06:33.694Z,4.60
2023-01-04T14:09:13.646Z,5.13
2023-01-04T14:12:06.168Z,3.45
2023-01-04T14:15:00.487Z,4.22
2023-01-04T14:17:31.599Z,3.38
2023-01-04T14:19:58.954Z,2.97
2023-01-04T14:22:27.294Z,3.58
2023-01-04T14:25:11.488Z,2.95
2023-01-04T14:27:43.003Z,4.53
2023-01-04T14:30:23.927Z,2.75
2023-01-04T14:32:54.298Z,3.85
2023-01-04T14:35:21.986Z,2.72
2023-01-04T14:37:49.358Z,3.30
2023-01-04T14:40:24.754Z,4.00
2023-01-04T14:42:52.043Z,3.17
2023-01-04T14:45:19.780Z,5.82
2023-01-04T14:47:46.956Z,3.25
2023-01-04T14:50:14.804Z,5.20
2023-01-04T14:52:42.227Z,3.95
2023-01-04T14:55:13.574Z,4.97
2023-01-04T14:57:43.258Z,4.97
2023-01-04T15:00:18.917Z,3.75
2023-01-04T15:02:50.342Z,5.75
2023-01-04T15:05:20.361Z,3.33
2023-01-04T15:07:47.966Z,4.97
2023-01-04T15:10:20.883Z,4.10
2023-01-04T15:12:48.073Z,5.65
2023-01-04T15:15:15.366Z,4.97
2023-01-04T15:17:42.615Z,4.18
2023-01-04T15:20:10.254Z,3.80
2023-01-04T15:22:37.459Z,4.65
2023-01-04T15:25:04.851Z,3.30
2023-01-04T15:27:36.902Z,5.70
2023-01-04T15:30:07.625Z,6.90
2023-01-04T15:32:35.654Z,5.78
2023-01-04T15:35:02.947Z,3.15
2023-01-04T15:37:30.321Z,3.15
2023-01-04T15:40:02.222Z,4.70
2023-01-04T15:42:48.961Z,5.25
2023-01-04T15:45:16.594Z,5.07
2023-01-04T15:47:43.735Z,3.83
2023-01-04T15:50:10.934Z,4.63
2023-01-04T15:52:38.189Z,4.15
2023-01-04T15:55:05.458Z,3.83
2023-01-04T15:57:32.666Z,4.78
2023-01-04T15:59:59.911Z,3.17
2023-01-04T16:02:27.405Z,8.55
2023-01-04T16:04:54.685Z,3.60
2023-01-04T16:07:21.923Z,4.10
2023-01-04T16:09:49.157Z,6.07
2023-01-04T16:12:36.658Z,5.18
2023-01-04T16:15:04.006Z,7.80
2023-01-04T16:17:31.286Z,7.22
2023-01-04T16:19:58.564Z,4.80
2023-01-04T16:22:25.893Z,3.85
2023-01-04T16:25:10.378Z,6.60
2023-01-04T16:27:39.410Z,6.32
2023-01-04T16:30:08.482Z,11.30
2023-01-04T16:32:36.448Z,11.30
2023-01-04T16:35:03.924Z,12.00
2023-01-04T16:37:31.248Z,5.80
2023-01-04T16:40:07.312Z,7.72
2023-01-04T16:42:35.398Z,10.10
2023-01-04T16:45:02.706Z,8.60
2023-01-04T16:47:29.895Z,7.07
2023-01-04T16:49:57.140Z,10.07
2023-01-04T16:52:27.314Z,7.65
2023-01-04T16:54:54.677Z,12.77
2023-01-04T16:57:21.911Z,9.23
2023-01-04T16:59:49.126Z,8.38
2023-01-04T17:02:16.470Z,6.95
2023-01-04T17:04:43.860Z,9.77
2023-01-04T17:07:11.437Z,8.23
2023-01-04T17:09:41.133Z,9.32
2023-01-04T17:12:45.505Z,10.05
2023-01-04T17:15:23.788Z,9.10
2023-01-04T17:17:43.884Z,7.40
2023-01-04T17:20:12.463Z,7.97
2023-01-04T17:22:40.594Z,7.85
2023-01-04T17:25:08.070Z,9.15
2023-01-04T17:27:35.569Z,9.00
2023-01-04T17:30:02.791Z,7.03
2023-01-04T17:32:30.001Z,13.18
2023-01-04T17:34:58.725Z,11.20
2023-01-04T17:37:26.206Z,9.07
2023-01-04T17:39:54.328Z,8.43
2023-01-04T17:42:21.617Z,7.07
2023-01-04T17:44:49.437Z,10.93
2023-01-04T17:47:16.776Z,9.15
2023-01-04T17:49:43.935Z,9.98
2023-01-04T17:52:16.474Z,7.38
2023-01-04T17:54:47.669Z,7.70
2023-01-04T17:57:14.863Z,7.80
2023-01-04T17:59:42.261Z,7.38
2023-01-04T18:02:10.104Z,10.35
2023-01-04T18:04:37.501Z,8.50
2023-01-04T18:07:04.630Z,8.38
2023-01-04T18:09:31.859Z,9.45
2023-01-04T18:11:59.177Z,8.48
2023-01-04T18:14:27.676Z,8.07
2023-01-04T18:16:58.489Z,13.30
2023-01-04T18:19:27.276Z,17.63
2023-01-04T18:21:54.766Z,21.05
2023-01-04T18:24:38.932Z,21.25
2023-01-04T18:27:25.028Z,17.63
2023-01-04T18:29:53.541Z,16.23
2023-01-04T18:32:21.233Z,20.60
2023-01-04T18:34:48.463Z,20.40
2023-01-04T18:37:16.565Z,19.58
2023-01-04T18:39:44.079Z,25.02
2023-01-04T18:42:11.373Z,27.17
2023-01-04T18:44:44.100Z,28.92
2023-01-04T18:47:13.229Z,28.02
2023-01-04T18:49:40.451Z,31.35
2023-01-04T18:52:07.782Z,23.45
2023-01-04T18:54:35.020Z,25.50
2023-01-04T18:57:03.195Z,31.00
2023-01-04T18:59:30.501Z,27.77
2023-01-04T19:02:02.195Z,22.95
2023-01-04T19:04:31.169Z,27.35
2023-01-04T19:06:58.595Z,25.13
2023-01-04T19:09:25.906Z,22.50
2023-01-04T19:11:53.058Z,27.08
2023-01-04T19:14:20.330Z,29.63
2023-01-04T19:16:47.562Z,27.88
2023-01-04T19:19:14.871Z,32.92
2023-01-04T19:21:42.228Z,29.60
2023-01-04T19:24:09.535Z,22.63
2023-01-04T19:26:37.078Z,25.00
2023-01-04T19:29:04.795Z,28.55
2023-01-04T19:31:32.291Z,21.48
2023-01-04T19:33:59.483Z,22.95
2023-01-04T19:36:26.812Z,20.85
2023-01-04T19:38:57.707Z,22.60
2023-01-04T19:41:33.502Z,19.13
2023-01-04T19:44:05.377Z,20.50
2023-01-04T19:48:59.887Z,18.30
2023-01-04T19:51:30.380Z,25.85
2023-01-04T19:53:58.745Z,25.73
2023-01-04T19:56:26.363Z,19.80
2023-01-04T19:58:53.589Z,22.00
2023-01-04T20:01:22.177Z,16.83
2023-01-04T20:03:49.874Z,20.52
2023-01-04T20:06:17.782Z,20.08
2023-01-04T20:08:45.097Z,19.30
2023-01-04T20:11:12.798Z,21.92
2023-01-04T20:13:40.691Z,19.42
2023-01-04T20:16:08.263Z,17.85
2023-01-04T20:18:36.059Z,20.08
2023-01-04T20:21:06.888Z,16.45
2023-01-04T20:23:34.716Z,21.98
2023-01-04T20:26:10.927Z,16.80
2023-01-04T20:28:38.865Z,19.33
2023-01-04T20:31:07.503Z,15.45
2023-01-04T20:33:34.782Z,16.65
2023-01-04T20:36:09.549Z,17.23
2023-01-04T20:38:39.954Z,18.20
2023-01-04T20:41:08.871Z,16.08
2023-01-04T20:43:37.325Z,16.05
2023-01-04T20:46:06.110Z,17.90
2023-01-04T20:48:33.470Z,17.50
2023-01-04T20:51:05.860Z,15.45
2023-01-04T20:53:33.164Z,17.05
2023-01-04T20:56:05.101Z,18.38
2023-01-04T20:58:32.311Z,18.38
2023-01-04T21:01:02.116Z,19.27
2023-01-04T21:03:29.726Z,20.98
2023-01-04T21:05:56.913Z,19.38
2023-01-04T21:08:24.153Z,12.70
2023-01-04T21:10:52.696Z,21.52
2023-01-04T21:13:19.889Z,17.73
2023-01-04T21:15:47.114Z,16.80
2023-01-04T21:18:14.467Z,21.25
2023-01-04T21:20:42.708Z,13.52
2023-01-04T21:23:13.131Z,17.60
2023-01-04T21:25:40.688Z,19.30
2023-01-04T21:28:07.932Z,16.90
2023-01-04T21:30:35.627Z,14.63
2023-01-04T21:33:02.852Z,14.57
2023-01-04T21:35:30.105Z,15.65
2023-01-04T21:37:57.362Z,18.40
2023-01-04T21:40:24.955Z,12.55
2023-01-04T21:42:52.138Z,14.85
2023-01-04T21:45:19.751Z,20.33
2023-01-04T21:47:47.237Z,16.10
2023-01-04T21:50:17.129Z,19.67
2023-01-04T21:52:44.766Z,14.50
2023-01-04T21:55:12.129Z,16.75
2023-01-04T21:57:39.363Z,14.70
2023-01-04T22:00:07.382Z,18.92
2023-01-04T22:02:34.985Z,15.60
2023-01-04T22:05:02.267Z,12.90
2023-01-04T22:07:29.572Z,17.48
2023-01-04T22:09:57.838Z,17.08
2023-01-04T22:12:25.394Z,15.43
2023-01-04T22:14:52.573Z,13.20
2023-01-04T22:17:19.737Z,13.25
2023-01-04T22:19:47.363Z,13.23
2023-01-04T22:22:14.563Z,14.50
2023-01-04T22:24:41.808Z,11.68
2023-01-04T22:27:08.952Z,16.77
2023-01-04T22:29:36.128Z,16.60
2023-01-04T22:32:03.439Z,13.70
2023-01-04T22:34:30.799Z,12.85
2023-01-04T22:36:57.989Z,15.20
2023-01-04T22:39:25.340Z,13.43
2023-01-04T22:41:52.515Z,17.75
2023-01-04T22:44:19.768Z,14.32
2023-01-04T22:46:47.102Z,16.10
2023-01-04T22:49:14.475Z,14.63
2023-01-04T22:51:41.716Z,13.55
2023-01-04T22:54:10.773Z,13.00
2023-01-04T22:56:38.125Z,16.35
2023-01-04T22:59:05.308Z,16.50
2023-01-04T23:01:34.318Z,16.08
2023-01-04T23:04:02.164Z,16.27
2023-01-04T23:06:30.040Z,15.10
2023-01-04T23:08:58.757Z,16.67
2023-01-04T23:11:26.614Z,14.20
2023-01-04T23:13:54.063Z,14.15
2023-01-04T23:16:26.217Z,12.32
2023-01-04T23:18:57.212Z,21.85
2023-01-04T23:21:24.444Z,15.63
2023-01-04T23:23:51.686Z,16.70
2023-01-04T23:26:20.502Z,15.05
2023-01-04T23:28:48.316Z,15.20
2023-01-04T23:31:16.739Z,16.90
2023-01-04T23:33:43.925Z,15.93
2023-01-04T23:36:12.692Z,17.75
2023-01-04T23:38:40.064Z,14.00
2023-01-04T23:41:07.426Z,14.52
2023-01-04T23:43:38.261Z,15.65
2023-01-04T23:48:36.384Z,13.80
2023-01-04T23:51:03.752Z,18.38
2023-01-04T23:53:30.999Z,15.85
2023-01-04T23:56:02.446Z,16.13
2023-01-04T23:58:31.422Z,15.27
